中部国際空港の過去48時間の天気

中部国際空港 (Chubu Centrair International)

現在時刻: 4/24 21:14 JST (4/24 12:14 UTC) 以下の時間は現地時間です。

過去48時間のMETAR気象情報
時間 風向 風速(m/s) 視程 気温(℃) 湿度(%) 気圧(hPa) 天気現象
24 21:00 南東 8 10km以上 18 100 1007 弱いしゅう雨
24 20:30 南東 7 10km以上 18 94 1007 弱いしゅう雨
24 20:00 南東 7 8,000m 18 94 1008 弱いしゅう雨
24 19:30 南東 6 5,000m 18 94 1008 しゅう雨 もや
24 19:00 東南東 6 4,000m 18 94 1008 しゅう雨 もや
24 18:30 南東 7 4,500m 18 94 1008 しゅう雨 もや
24 18:00 南東 7 4,500m 18 94 1008 弱いしゅう雨 もや
24 17:30 南東 7 5,000m 18 94 1008 弱いしゅう雨 もや
24 17:00 南東 6 4,500m 18 94 1009 弱いしゅう雨 もや
24 16:30 東南東 7 5,000m 18 94 1009 弱いしゅう雨 もや
24 16:00 東南東 8 4,500m 18 94 1009 しゅう雨 もや
24 15:30 東南東 7 5,000m 18 94 1010 しゅう雨 もや
24 15:00 東南東 7 7,000m 18 94 1010 弱いしゅう雨
24 14:30 南東 6 7,000m 18 94 1010 弱いしゅう雨
24 14:00 南東 7 7,000m 18 94 1011 弱いしゅう雨
24 13:30 南東 6 5,000m 18 94 1012 弱いしゅう雨 もや
24 13:00 南東 6 6,000m 18 94 1012 弱いしゅう雨
24 12:30 南南東 6 10km以上 19 88 1012 弱い雨
24 12:00 南南東 7 10km以上 20 78 1013 弱い雨
24 11:30 南南東 8 10km以上 20 78 1013 弱い雨
24 11:00 南南東 8 10km以上 20 78 1013 周辺でしゅう雨
24 10:30 南南東 8 10km以上 20 78 1014
24 10:00 南南東 9 10km以上 20 78 1014
24 09:30 南南東 8 10km以上 20 78 1014
24 09:00 南南東 8 10km以上 20 73 1014
24 08:30 南南東 8 10km以上 19 83 1015
24 08:00 南東 7 10km以上 19 83 1015
24 07:30 南東 7 10km以上 19 83 1015 周辺でしゅう雨
24 07:00 南東 8 10km以上 18 88 1015 弱い雨
24 06:30 南東 7 10km以上 19 83 1015 弱い雨
24 06:00 南東 7 10km以上 19 83 1015
24 05:30 南東 6 10km以上 18 88 1015 弱い雨
24 05:00 東南東 6 10km以上 18 94 1015
24 04:30 東南東 7 10km以上 19 88 1015
24 04:00 東南東 6 10km以上 19 88 1015
24 03:30 東南東 6 10km以上 19 88 1015
24 03:00 東南東 6 10km以上 19 88 1015
24 02:30 東南東 6 10km以上 19 88 1016
24 02:00 東南東 5 10km以上 19 88 1016
24 01:30 東南東 5 10km以上 19 88 1016
24 01:00 南東 6 10km以上 19 88 1017
24 00:30 南東 7 10km以上 19 88 1017
24 00:00 南東 7 10km以上 19 88 1017
23 23:30 南東 8 10km以上 19 88 1017
23 23:00 南東 8 10km以上 19 83 1017
23 22:30 南東 8 10km以上 19 83 1018
23 22:00 南東 7 10km以上 19 83 1018
23 21:30 南東 7 10km以上 19 83 1018
23 21:00 南東 6 10km以上 19 83 1018
23 20:30 南東 7 10km以上 19 83 1018
23 20:00 南東 7 10km以上 19 78 1018
23 19:30 南東 7 10km以上 19 78 1018
23 19:00 南東 8 10km以上 20 73 1017
23 18:30 南東 8 10km以上 20 73 1017
23 18:00 南東 8 10km以上 20 73 1017
23 17:30 南東 9 10km以上 21 69 1017
23 17:00 南東 10 10km以上 21 69 1017
23 16:30 南東 11 10km以上 22 60 1016
23 16:00 南東 10 10km以上 22 60 1016
23 15:30 南東 10 10km以上 23 57 1016
23 15:00 南東 11 10km以上 23 53 1016
23 14:30 南南東 9 10km以上 24 54 1017
23 14:00 南東 9 10km以上 23 57 1017
23 13:30 南東 7 10km以上 23 57 1017
23 13:00 東南東 8 10km以上 23 61 1017
23 12:30 東南東 8 10km以上 23 57 1017
23 12:00 東南東 8 10km以上 23 61 1017
23 11:30 4 10km以上 22 65 1018
23 11:00 東南東 6 10km以上 23 61 1018
23 10:30 東南東 6 10km以上 22 65 1018
23 10:00 東南東 6 10km以上 21 69 1018
23 09:30 南東 5 10km以上 21 73 1019
23 09:00 南東 5 9,000m 20 78 1019
23 08:30 南東 5 9,000m 19 83 1019
23 08:00 南東 5 8,000m 19 83 1019
23 07:30 南東 4 8,000m 18 88 1019
23 07:00 南南東 3 6,000m 17 94 1019 もや
23 06:30 南南東 4 6,000m 17 94 1018 もや
23 06:00 南東 3 6,000m 17 94 1018 もや
23 05:30 南東 3 6,000m 16 94 1018 もや
23 05:00 南東 3 6,000m 16 94 1018 もや
23 04:30 2 6,000m 17 88 1017 もや
23 04:00 2 7,000m 17 88 1017
23 03:30 東南東 3 8,000m 17 88 1017
23 03:00 南東 3 8,000m 17 88 1017
23 02:30 東南東 3 9,000m 17 94 1017
23 02:00 3 8,000m 17 94 1017
23 01:30 東南東 3 8,000m 17 94 1017
23 01:00 東南東 4 8,000m 18 88 1017
23 00:30 東南東 4 8,000m 18 88 1017
23 00:00 東南東 5 8,000m 18 88 1017
22 23:30 東南東 5 8,000m 18 88 1017
22 23:00 南東 4 10km以上 18 88 1017
22 22:30 東南東 4 10km以上 18 88 1017
22 22:00 東南東 5 10km以上 19 83 1017
22 21:30 東南東 5 10km以上 19 83 1017
RJGG 241200Z 13015KT 9999 -SHRA FEW006 SCT045 BKN100 18/18 Q1007 NOSIG
RJGG 241130Z 13014KT 9999 -SHRA FEW006 SCT025 BKN080 18/17 Q1007 NOSIG
RJGG 241100Z 14014KT 8000 -SHRA FEW006 SCT035 BKN080 18/17 Q1008 NOSIG
RJGG 241030Z 13012KT 5000 SHRA BR FEW006 BKN020 18/17 Q1008 TEMPO 4000 SHRA BR
RJGG 241000Z 12012KT 4000 SHRA BR FEW010 SCT030 BKN040 18/17 Q1008 NOSIG
RJGG 240930Z 13014KT 4500 SHRA BR FEW010 SCT030 BKN040 18/17 Q1008 NOSIG
RJGG 240900Z 13014KT 4500 -SHRA BR FEW008 BKN030 BKN045 18/17 Q1008 NOSIG
RJGG 240830Z 13014KT 5000 -SHRA BR FEW008 SCT025 BKN035 18/17 Q1008 TEMPO 4000 -SHRA BR
RJGG 240800Z 13012KT 4500 -SHRA BR FEW008 BKN030 BKN040 18/17 Q1009 NOSIG
RJGG 240730Z 12014KT 5000 -SHRA BR FEW008 BKN035 BKN040 18/17 Q1009 NOSIG
RJGG 240700Z 11015KT 4500 SHRA BR FEW008 BKN030 BKN040 18/17 Q1009 BECMG 6000 -SHRA
RJGG 240630Z 12014KT 5000 SHRA BR FEW008 BKN030 BKN050 18/17 Q1010 NOSIG
RJGG 240600Z 12014KT 7000 -SHRA FEW008 SCT035 BKN060 18/17 Q1010 NOSIG
RJGG 240530Z 13012KT 7000 -SHRA FEW008 SCT035 BKN050 18/17 Q1010 NOSIG
RJGG 240500Z 13013KT 7000 -SHRA FEW008 SCT035 BKN060 18/17 Q1011 NOSIG
RJGG 240430Z 13011KT 5000 -SHRA BR FEW015 SCT035 BKN060 18/17 Q1012 NOSIG
RJGG 240400Z 14012KT 6000 -SHRA FEW015 BKN035 BKN060 18/17 Q1012 NOSIG
RJGG 240330Z 15012KT 9999 -RA FEW015 BKN050 BKN070 19/17 Q1012 NOSIG
RJGG 240300Z 15014KT 9999 -RA FEW015 BKN060 20/16 Q1013 NOSIG
RJGG 240230Z 15015KT 9999 -RA FEW015 BKN060 20/16 Q1013 NOSIG
RJGG 240200Z 15016KT 9999 VCSH FEW015 BKN050 BKN070 20/16 Q1013 NOSIG
RJGG 240130Z 15016KT 9999 FEW015 BKN060 BKN100 20/16 Q1014 NOSIG
RJGG 240100Z 15017KT 9999 FEW015 BKN050 BKN070 20/16 Q1014 NOSIG
RJGG 240030Z 15015KT 9999 FEW015 BKN060 20/16 Q1014 NOSIG
RJGG 240000Z 15016KT 9999 FEW015 BKN060 20/15 Q1014 NOSIG
RJGG 232330Z 15015KT 9999 FEW015 BKN060 19/16 Q1015 NOSIG
RJGG 232300Z 14013KT 9999 FEW015 BKN060 19/16 Q1015 NOSIG
RJGG 232230Z 13014KT 9999 VCSH FEW015 BKN060 19/16 Q1015 NOSIG
RJGG 232200Z 14015KT 9999 -RA FEW015 BKN060 18/16 Q1015 NOSIG
RJGG 232130Z 14013KT 9999 -RA FEW015 BKN060 19/16 Q1015 NOSIG
RJGG 232100Z 14013KT 9999 FEW015 BKN060 19/16 Q1015 NOSIG
RJGG 232030Z 13012KT 9999 -RA FEW015 BKN060 18/16 Q1015 NOSIG
RJGG 232000Z 12011KT 9999 FEW015 BKN060 18/17 Q1015 NOSIG
RJGG 231930Z 11013KT 9999 FEW025 BKN060 BKN070 19/17 Q1015 NOSIG
RJGG 231900Z 11012KT 9999 FEW025 BKN050 BKN070 19/17 Q1015 NOSIG
RJGG 231830Z 11011KT 9999 FEW025 SCT050 BKN060 19/17 Q1015 NOSIG
RJGG 231800Z 11011KT 9999 FEW025 BKN050 BKN070 19/17 Q1015 NOSIG
RJGG 231730Z 11011KT 9999 FEW025 BKN050 BKN070 19/17 Q1016 NOSIG
RJGG 231700Z 11009KT 9999 FEW025 BKN050 BKN070 19/17 Q1016 NOSIG
RJGG 231630Z 12010KT 9999 FEW025 BKN050 BKN070 19/17 Q1016 NOSIG
RJGG 231600Z 14011KT 9999 FEW025 BKN050 BKN070 19/17 Q1017 NOSIG
RJGG 231530Z 13013KT 9999 FEW025 BKN050 BKN070 19/17 Q1017 NOSIG
RJGG 231500Z 14014KT 9999 FEW025 BKN050 19/17 Q1017 NOSIG
RJGG 231430Z 14015KT 9999 FEW025 BKN050 19/17 Q1017 NOSIG
RJGG 231400Z 14015KT 9999 FEW030 BKN050 19/16 Q1017 NOSIG
RJGG 231330Z 14016KT 9999 FEW030 BKN050 19/16 Q1018 NOSIG
RJGG 231300Z 14014KT 9999 FEW030 BKN050 19/16 Q1018 NOSIG
RJGG 231230Z 14013KT 9999 FEW030 BKN050 19/16 Q1018 NOSIG
RJGG 231200Z 13012KT 9999 FEW030 BKN050 19/16 Q1018 NOSIG
RJGG 231130Z 14013KT 9999 FEW025 BKN050 19/16 Q1018 NOSIG
RJGG 231100Z 13014KT 9999 FEW025 BKN050 19/15 Q1018 NOSIG
RJGG 231030Z 13013KT 9999 FEW025 SCT050 BKN/// 19/15 Q1018 NOSIG
RJGG 231000Z 13015KT 9999 FEW025 BKN070 BKN/// 20/15 Q1017 NOSIG
RJGG 230930Z 13016KT 9999 FEW025 BKN070 BKN/// 20/15 Q1017 NOSIG
RJGG 230900Z 13016KT 9999 FEW025 BKN070 BKN/// 20/15 Q1017 NOSIG
RJGG 230830Z 14017KT 9999 FEW025 SCT070 BKN/// 21/15 Q1017 NOSIG
RJGG 230800Z 14019KT 9999 FEW025 BKN/// 21/15 Q1017 NOSIG
RJGG 230730Z 14021KT 9999 FEW025 BKN/// 22/14 Q1016 NOSIG
RJGG 230700Z 14020KT 9999 FEW025 BKN/// 22/14 Q1016 NOSIG
RJGG 230630Z 14019KT 9999 FEW025 BKN/// 23/14 Q1016 NOSIG
RJGG 230600Z 14022KT 9999 FEW025 BKN/// 23/13 Q1016 NOSIG
RJGG 230530Z 15018KT 9999 FEW025 BKN/// 24/14 Q1017 NOSIG
RJGG 230500Z 14018KT 9999 FEW025 BKN/// 23/14 Q1017 NOSIG
RJGG 230430Z 14014KT 9999 FEW030 BKN/// 23/14 Q1017 NOSIG
RJGG 230400Z 12015KT 9999 FEW030 BKN/// 23/15 Q1017 NOSIG
RJGG 230330Z 11015KT 9999 FEW030 BKN/// 23/14 Q1017 NOSIG
RJGG 230300Z 11015KT 9999 FEW030 BKN/// 23/15 Q1017 NOSIG
RJGG 230230Z 19007KT 9999 FEW030 BKN/// 22/15 Q1018 BECMG 13012KT
RJGG 230200Z 12012KT 9999 FEW030 BKN/// 23/15 Q1018 NOSIG
RJGG 230130Z 12012KT 9999 FEW030 BKN/// 22/15 Q1018 NOSIG
RJGG 230100Z 12012KT 9999 FEW030 BKN/// 21/15 Q1018 NOSIG
RJGG 230030Z 13010KT 9999 FEW030 BKN/// 21/16 Q1019 NOSIG
RJGG 230000Z 13010KT 9000 NSC 20/16 Q1019 NOSIG
RJGG 222330Z 14010KT 9000 NSC 19/16 Q1019 NOSIG
RJGG 222300Z 14009KT 8000 NSC 19/16 Q1019 NOSIG
RJGG 222230Z 13007KT 8000 FEW008 18/16 Q1019 NOSIG
RJGG 222200Z 16005KT 6000 BR NSC 17/16 Q1019 NOSIG
RJGG 222130Z 15007KT 110V210 6000 BR NSC 17/16 Q1018 NOSIG
RJGG 222100Z 14006KT 6000 BR NSC 17/16 Q1018 NOSIG
RJGG 222030Z 14006KT 6000 BR NSC 16/15 Q1018 NOSIG
RJGG 222000Z 13006KT 6000 BR NSC 16/15 Q1018 NOSIG
RJGG 221930Z 09004KT 6000 BR NSC 17/15 Q1017 BECMG 06005KT
RJGG 221900Z 09004KT 7000 NSC 17/15 Q1017 BECMG 06005KT
RJGG 221830Z 12005KT 8000 NSC 17/15 Q1017 BECMG 06005KT
RJGG 221800Z 13005KT 8000 NSC 17/15 Q1017 BECMG 06005KT
RJGG 221730Z 12006KT 9000 NSC 17/16 Q1017 BECMG 06005KT
RJGG 221700Z 10005KT 8000 NSC 17/16 Q1017 BECMG 06005KT
RJGG 221630Z 12006KT 8000 NSC 17/16 Q1017 BECMG 06005KT
RJGG 221600Z 12007KT 8000 NSC 18/16 Q1017 BECMG 06005KT
RJGG 221530Z 12008KT 8000 NSC 18/16 Q1017 NOSIG
RJGG 221500Z 12009KT 8000 NSC 18/16 Q1017 NOSIG
RJGG 221430Z 12009KT 8000 NSC 18/16 Q1017 NOSIG
RJGG 221400Z 13008KT CAVOK 18/16 Q1017 NOSIG
RJGG 221330Z 12008KT CAVOK 18/16 Q1017 NOSIG
RJGG 221300Z 12009KT CAVOK 19/16 Q1017 NOSIG
RJGG 221230Z 12009KT CAVOK 19/16 Q1017 NOSIG